Terminal Aerodrome Forecast
Issued by NWS

Home | Current Version | Previous Version | Text Only | Print | Product List | Glossary Off
Versions: 1 2 3 4 5 6 7 8 9 10 11 12 13 14 15 16 17 18 19 20 21 22 23 24 25 26 27 28 29 30 31 32 33 34 35 36 37 38 39 40

000
FTUS43 KLOT 121400 AAD
TAFORD
TAF AMD
KORD 121450Z 1215/1318 23006KT 4SM SHRA BKN005 BKN012 OVC025
     FM121515 15006KT P6SM -RA SCT018 BKN025 OVC060
     FM121700 22010KT P6SM BKN035 BKN120
     FM130000 20010G16KT P6SM VCTS BKN040CB
     FM130400 26010KT 3SM TSRA SCT015 OVC035CB
     FM130800 30008KT P6SM SCT020 OVC040=

USA.gov is the U.S. government's official web portal to all federal, state and local government web resources and services.